Time;durP1;ratioP1;P1;durP2;ratioP2;P2;SDS_P1;SDS_P2;PMS_P1;PMS_P2;Temp;Humidity;BMP_temperature;BMP_pressure;BME280_temperature;BME280_humidity;BME280_pressure;Samples;Min_cycle;Max_cycle;Signal;HPM_P1;HPM_P2
2023/07/11 00:00:43;;;;;;;0.00;0.00;;;19.80;70.60;;;;;;4994150;28;20165;-74
2023/07/11 00:03:10;;;;;;;0.00;0.00;;;19.80;70.80;;;;;;5011536;28;20034;-74
2023/07/11 00:05:36;;;;;;;0.00;0.00;;;19.80;70.60;;;;;;4998268;28;20061;-74
2023/07/11 00:08:01;;;;;;;0.00;0.00;;;19.70;70.30;;;;;;5009540;28;20503;-74
2023/07/11 00:10:28;;;;;;;0.00;0.00;;;19.70;70.40;;;;;;5010255;28;20076;-74
2023/07/11 00:12:54;;;;;;;0.00;0.00;;;19.60;70.50;;;;;;5011269;28;20042;-74
2023/07/11 00:15:20;;;;;;;0.17;0.17;;;19.60;70.30;;;;;;5010897;28;20044;-73
2023/07/11 00:17:46;;;;;;;0.00;0.00;;;19.60;70.40;;;;;;5000926;28;20518;-73
2023/07/11 00:20:13;;;;;;;0.00;0.00;;;19.60;70.60;;;;;;5011658;28;20046;-73
2023/07/11 00:22:39;;;;;;;0.00;0.00;;;19.60;70.90;;;;;;5009585;28;20121;-73
2023/07/11 00:25:06;;;;;;;0.00;0.00;;;19.60;70.50;;;;;;5011042;28;20184;-73
2023/07/11 00:27:31;;;;;;;0.00;0.00;;;19.60;70.40;;;;;;5011024;28;20085;-74
2023/07/11 00:29:57;;;;;;;0.00;0.00;;;19.60;70.10;;;;;;5010708;28;20101;-73
2023/07/11 00:32:23;;;;;;;0.00;0.00;;;19.60;70.00;;;;;;5010634;28;20751;-73
2023/07/11 00:34:48;;;;;;;0.00;0.00;;;19.70;69.90;;;;;;5011658;28;20046;-73
2023/07/11 00:37:15;;;;;;;0.00;0.00;;;19.60;69.90;;;;;;5010434;28;20592;-73
2023/07/11 00:39:40;;;;;;;0.00;0.00;;;19.70;70.00;;;;;;4991688;28;20084;-73
2023/07/11 00:42:07;;;;;;;0.00;0.00;;;19.70;69.90;;;;;;5010617;28;20073;-73
2023/07/11 00:44:59;;;;;;;0.00;0.00;;;19.70;69.90;;;;;;5010680;28;20042;-73
2023/07/11 00:47:26;;;;;;;0.00;0.00;;;19.70;70.20;;;;;;5010191;28;20065;-74
2023/07/11 00:50:05;;;;;;;0.00;0.00;;;19.70;70.50;;;;;;5010024;28;20050;-74
2023/07/11 00:52:35;;;;;;;0.00;0.00;;;19.70;70.10;;;;;;5009876;28;20052;-73
2023/07/11 00:55:05;;;;;;;0.00;0.00;;;19.60;70.30;;;;;;5010143;28;20046;-73
2023/07/11 00:57:35;;;;;;;0.00;0.00;;;19.60;70.20;;;;;;5010376;28;20050;-73
2023/07/11 01:00:01;;;;;;;0.00;0.00;;;19.60;70.10;;;;;;5010633;28;20082;-73
2023/07/11 01:02:28;;;;;;;0.00;0.00;;;19.60;70.20;;;;;;4993122;28;20077;-73
2023/07/11 01:04:54;;;;;;;0.00;0.00;;;19.50;70.20;;;;;;4993162;28;20120;-73
2023/07/11 01:07:24;;;;;;;0.00;0.00;;;19.50;70.30;;;;;;5010282;28;20446;-73
2023/07/11 01:09:49;;;;;;;0.00;0.00;;;19.50;70.30;;;;;;5009557;28;20061;-73
2023/07/11 01:12:16;;;;;;;0.00;0.00;;;19.50;70.40;;;;;;5009457;28;20970;-73
2023/07/11 01:14:45;;;;;;;0.00;0.00;;;19.50;70.30;;;;;;5015208;28;20120;-73
2023/07/11 01:17:29;;;;;;;0.00;0.00;;;19.50;70.70;;;;;;5021408;28;20470;-73
2023/07/11 01:19:56;;;;;;;0.00;0.00;;;19.50;70.90;;;;;;5014741;28;20049;-73
2023/07/11 01:22:23;;;;;;;0.00;0.00;;;19.50;70.90;;;;;;5009094;28;20042;-73
2023/07/11 01:24:50;;;;;;;0.00;0.00;;;19.50;70.80;;;;;;5010118;28;20433;-73
2023/07/11 01:27:17;;;;;;;0.00;0.00;;;19.40;70.90;;;;;;5010190;28;20108;-74
2023/07/11 01:29:42;;;;;;;0.00;0.00;;;19.40;70.90;;;;;;5008720;28;20045;-73
2023/07/11 01:32:09;;;;;;;0.00;0.00;;;19.40;71.00;;;;;;5008949;28;20050;-73
2023/07/11 01:34:35;;;;;;;0.00;0.00;;;19.40;71.70;;;;;;5009463;28;20046;-73
2023/07/11 01:37:01;;;;;;;0.00;0.00;;;19.30;71.90;;;;;;5009837;28;20071;-73
2023/07/11 01:39:26;;;;;;;0.00;0.00;;;19.30;71.90;;;;;;5009518;28;20049;-73
2023/07/11 01:41:52;;;;;;;0.00;0.00;;;19.30;71.70;;;;;;5009643;28;20048;-73
2023/07/11 01:44:18;;;;;;;0.00;0.00;;;19.30;71.50;;;;;;5009823;28;20491;-73
2023/07/11 01:46:43;;;;;;;0.00;0.00;;;19.20;71.50;;;;;;5009613;28;20038;-73
2023/07/11 01:49:09;;;;;;;0.00;0.00;;;19.10;71.60;;;;;;5009002;28;20469;-73
2023/07/11 01:51:34;;;;;;;0.00;0.00;;;19.20;71.60;;;;;;4991391;28;20053;-73
2023/07/11 01:54:00;;;;;;;0.00;0.00;;;19.10;71.70;;;;;;5009652;28;20081;-74
2023/07/11 01:56:26;;;;;;;0.00;0.00;;;19.10;71.80;;;;;;5009026;28;20084;-73
2023/07/11 01:58:51;;;;;;;0.00;0.00;;;19.10;72.20;;;;;;4992065;28;20081;-73
2023/07/11 02:01:17;;;;;;;0.00;0.00;;;19.10;71.90;;;;;;5009979;28;20049;-73
2023/07/11 02:03:42;;;;;;;0.00;0.00;;;19.10;72.20;;;;;;5009270;28;20042;-73
2023/07/11 02:06:08;;;;;;;0.00;0.00;;;19.10;71.90;;;;;;5009085;28;20042;-73
2023/07/11 02:08:34;;;;;;;0.00;0.00;;;19.00;72.10;;;;;;5009659;28;20057;-73
2023/07/11 02:10:59;;;;;;;0.00;0.00;;;19.00;72.10;;;;;;5009370;28;20046;-73
2023/07/11 02:13:25;;;;;;;0.00;0.00;;;19.00;72.20;;;;;;5008840;28;20045;-73
2023/07/11 02:15:51;;;;;;;0.00;0.00;;;19.10;72.30;;;;;;5005575;28;20379;-73
2023/07/11 02:18:16;;;;;;;0.00;0.00;;;19.10;72.60;;;;;;5009344;28;20042;-73
2023/07/11 02:20:46;;;;;;;0.00;0.00;;;19.00;72.50;;;;;;5008619;28;20050;-73
2023/07/11 02:23:14;;;;;;;0.00;0.00;;;19.00;72.50;;;;;;4991653;28;20141;-73
2023/07/11 02:25:40;;;;;;;0.00;0.00;;;19.00;72.30;;;;;;4991200;28;20057;-73
2023/07/11 02:28:06;;;;;;;0.00;0.00;;;19.00;72.60;;;;;;5009663;28;20405;-73
2023/07/11 02:30:32;;;;;;;0.00;0.00;;;19.00;72.70;;;;;;5008266;28;20046;-73
2023/07/11 02:32:57;;;;;;;0.00;0.00;;;19.00;72.50;;;;;;5008907;28;20050;-73
2023/07/11 02:35:24;;;;;;;0.00;0.00;;;19.00;72.40;;;;;;4992057;28;20054;-73
2023/07/11 02:37:50;;;;;;;0.00;0.00;;;19.00;72.50;;;;;;5008856;28;20046;-73
2023/07/11 02:40:16;;;;;;;0.00;0.00;;;19.00;72.50;;;;;;5008980;28;20553;-73
2023/07/11 02:42:41;;;;;;;0.00;0.00;;;19.00;72.50;;;;;;5009118;28;20046;-73
2023/07/11 02:45:07;;;;;;;0.00;0.00;;;19.00;72.60;;;;;;5009030;28;20506;-73
2023/07/11 02:47:33;;;;;;;0.00;0.00;;;19.00;72.50;;;;;;4975252;28;20049;-73
2023/07/11 02:49:58;;;;;;;0.00;0.00;;;19.00;72.20;;;;;;5007945;28;20046;-73
2023/07/11 02:52:24;;;;;;;0.00;0.00;;;18.90;72.00;;;;;;5007707;28;20076;-73
2023/07/11 02:54:49;;;;;;;0.00;0.00;;;19.00;71.90;;;;;;5009344;28;20407;-73
2023/07/11 02:57:15;;;;;;;0.00;0.00;;;19.00;71.80;;;;;;5008766;28;20124;-73
2023/07/11 02:59:41;;;;;;;0.00;0.00;;;19.00;71.80;;;;;;4990668;28;20041;-73
2023/07/11 03:02:06;;;;;;;0.00;0.00;;;18.90;71.80;;;;;;4989683;28;20038;-73
2023/07/11 03:04:32;;;;;;;0.00;0.00;;;18.90;71.70;;;;;;5008916;28;20488;-73
2023/07/11 03:06:58;;;;;;;0.30;0.30;;;19.00;71.40;;;;;;5008881;28;20034;-73
2023/07/11 03:09:25;;;;;;;0.00;0.00;;;19.00;71.40;;;;;;5008564;28;20388;-73
2023/07/11 03:11:51;;;;;;;0.00;0.00;;;18.90;71.40;;;;;;5008033;28;20046;-73
2023/07/11 03:14:18;;;;;;;0.00;0.00;;;18.90;71.40;;;;;;5015374;28;20045;-73
2023/07/11 03:16:44;;;;;;;0.00;0.00;;;18.90;71.60;;;;;;4994293;28;20040;-73
2023/07/11 03:19:09;;;;;;;0.00;0.00;;;18.90;71.50;;;;;;5009716;28;20029;-73
2023/07/11 03:21:35;;;;;;;0.00;0.00;;;18.90;71.70;;;;;;5008295;28;20104;-73
2023/07/11 03:24:01;;;;;;;0.00;0.00;;;18.90;71.70;;;;;;5008591;28;20704;-73
2023/07/11 03:26:27;;;;;;;0.00;0.00;;;18.90;71.90;;;;;;4990886;28;20061;-73
2023/07/11 03:28:53;;;;;;;0.00;0.00;;;18.80;72.10;;;;;;5008229;28;20042;-73
2023/07/11 03:31:18;;;;;;;0.00;0.00;;;18.80;72.10;;;;;;5008481;28;20434;-73
2023/07/11 03:33:46;;;;;;;0.00;0.00;;;18.80;72.20;;;;;;5008809;28;20046;-73
2023/07/11 03:36:12;;;;;;;0.00;0.00;;;18.80;72.40;;;;;;5008353;28;20073;-73
2023/07/11 03:38:37;;;;;;;0.00;0.00;;;18.70;72.40;;;;;;5008425;28;20045;-73
2023/07/11 03:41:03;;;;;;;0.00;0.00;;;18.70;72.40;;;;;;4990690;28;20153;-73
2023/07/11 03:43:29;;;;;;;0.00;0.00;;;18.60;72.60;;;;;;4991469;28;20171;-73
2023/07/11 03:45:54;;;;;;;0.00;0.00;;;18.60;72.70;;;;;;4990969;28;20077;-73
2023/07/11 03:48:20;;;;;;;0.00;0.00;;;18.60;72.80;;;;;;4991180;28;20050;-73
2023/07/11 03:50:46;;;;;;;0.00;0.00;;;18.60;73.20;;;;;;4991163;28;20054;-73
2023/07/11 03:53:12;;;;;;;0.00;0.00;;;18.60;73.00;;;;;;5009952;28;20498;-73
2023/07/11 03:55:37;;;;;;;0.00;0.00;;;18.60;73.00;;;;;;5012150;28;20522;-73
2023/07/11 03:58:03;;;;;;;0.00;0.00;;;18.60;73.10;;;;;;5011903;28;20045;-73
2023/07/11 04:00:29;;;;;;;0.00;0.00;;;18.60;73.10;;;;;;5011991;28;20364;-73
2023/07/11 04:02:54;;;;;;;0.00;0.00;;;18.60;73.10;;;;;;5011562;28;20126;-73
2023/07/11 04:05:20;;;;;;;0.00;0.00;;;18.60;73.10;;;;;;5012341;28;20088;-73
2023/07/11 04:07:46;;;;;;;0.00;0.00;;;18.60;73.70;;;;;;5011671;28;20049;-73
2023/07/11 04:10:12;;;;;;;0.00;0.00;;;18.60;73.50;;;;;;5012104;28;20123;-73
2023/07/11 04:12:38;;;;;;;0.00;0.00;;;18.50;73.30;;;;;;5011537;28;20418;-73
2023/07/11 04:15:06;;;;;;;0.00;0.00;;;18.50;73.50;;;;;;5011928;28;20117;-73
2023/07/11 04:17:32;;;;;;;0.00;0.00;;;18.50;73.60;;;;;;5009803;28;20057;-73
2023/07/11 04:19:57;;;;;;;0.00;0.00;;;18.50;73.80;;;;;;5011836;28;20453;-73
2023/07/11 04:22:23;;;;;;;0.98;0.75;;;18.50;73.90;;;;;;4992371;28;20121;-73
2023/07/11 04:24:48;;;;;;;0.00;0.00;;;18.50;74.00;;;;;;5011727;28;20103;-73
2023/07/11 04:27:14;;;;;;;0.00;0.00;;;18.50;73.80;;;;;;5010090;28;20034;-72
2023/07/11 04:29:39;;;;;;;0.00;0.00;;;18.50;74.10;;;;;;5010306;28;20046;-73
2023/07/11 04:32:06;;;;;;;0.00;0.00;;;18.50;74.40;;;;;;4993733;28;20826;-73
2023/07/11 04:34:32;;;;;;;0.00;0.00;;;18.50;74.90;;;;;;5011379;28;20506;-73
2023/07/11 04:36:58;;;;;;;0.00;0.00;;;18.50;74.90;;;;;;5011129;28;20045;-73
2023/07/11 04:39:23;;;;;;;0.00;0.00;;;18.50;75.00;;;;;;5011549;28;20571;-73
2023/07/11 04:41:49;;;;;;;0.00;0.00;;;18.50;75.20;;;;;;4997816;28;20068;-73
2023/07/11 04:44:15;;;;;;;0.00;0.00;;;18.50;75.20;;;;;;4996883;28;20047;-73
2023/07/11 04:46:41;;;;;;;0.00;0.00;;;18.50;74.90;;;;;;5011063;28;20049;-73
2023/07/11 04:49:07;;;;;;;0.00;0.00;;;18.50;75.20;;;;;;5011477;28;20494;-73
2023/07/11 04:51:32;;;;;;;0.00;0.00;;;18.50;75.30;;;;;;5011138;28;20184;-73
2023/07/11 04:53:58;;;;;;;0.00;0.00;;;18.50;75.50;;;;;;4993661;28;20050;-73
2023/07/11 04:56:24;;;;;;;0.00;0.00;;;18.50;75.60;;;;;;5010131;28;20038;-73
2023/07/11 04:58:50;;;;;;;0.00;0.00;;;18.50;75.60;;;;;;5010831;28;20083;-73
2023/07/11 05:01:18;;;;;;;0.00;0.00;;;18.50;75.40;;;;;;5010583;28;20131;-73
2023/07/11 05:03:47;;;;;;;0.00;0.00;;;18.50;75.50;;;;;;5010041;28;20565;-73
2023/07/11 05:06:12;;;;;;;0.00;0.00;;;18.50;75.70;;;;;;5004317;28;20052;-73
2023/07/11 05:08:39;;;;;;;0.00;0.00;;;18.60;75.80;;;;;;4992210;28;20446;-73
2023/07/11 05:11:07;;;;;;;0.00;0.00;;;18.60;75.80;;;;;;5009268;28;20042;-73
2023/07/11 05:13:34;;;;;;;0.00;0.00;;;18.70;76.10;;;;;;4992564;28;20282;-73
2023/07/11 05:16:10;;;;;;;0.00;0.00;;;18.70;76.50;;;;;;5008443;28;20050;-72
2023/07/11 05:18:41;;;;;;;0.00;0.00;;;18.80;77.20;;;;;;5009296;28;20510;-71
2023/07/11 05:21:10;;;;;;;0.00;0.00;;;18.80;77.30;;;;;;5009560;28;20041;-71
2023/07/11 05:23:37;;;;;;;0.00;0.00;;;18.90;77.30;;;;;;5008460;28;20085;-74
2023/07/11 05:26:04;;;;;;;0.15;0.15;;;19.00;77.40;;;;;;5008791;28;20498;-73
2023/07/11 05:28:30;;;;;;;0.00;0.00;;;19.00;77.40;;;;;;5009285;28;20053;-74
2023/07/11 05:30:56;;;;;;;0.00;0.00;;;19.10;77.30;;;;;;5007574;28;20042;-74
2023/07/11 05:33:23;;;;;;;0.00;0.00;;;19.10;77.10;;;;;;5009622;28;20062;-74
2023/07/11 05:38:33;;;;;;;0.10;0.10;;;19.20;77.10;;;;;;5009394;28;20046;-74
2023/07/11 05:41:00;;;;;;;0.00;0.00;;;19.20;77.60;;;;;;5008850;28;20053;-74
2023/07/11 05:43:25;;;;;;;0.00;0.00;;;19.30;78.20;;;;;;5009032;28;20541;-74
2023/07/11 05:45:51;;;;;;;0.00;0.00;;;19.30;78.50;;;;;;5006183;28;20042;-73
2023/07/11 05:48:16;;;;;;;0.00;0.00;;;19.40;78.00;;;;;;5007697;28;20077;-74
2023/07/11 05:50:42;;;;;;;0.00;0.00;;;19.40;77.70;;;;;;4990042;28;20104;-74
2023/07/11 05:53:08;;;;;;;0.25;0.15;;;19.40;77.30;;;;;;5008181;28;20096;-74
2023/07/11 05:55:33;;;;;;;0.00;0.00;;;19.50;77.40;;;;;;4989693;28;20045;-74
2023/07/11 05:57:59;;;;;;;0.00;0.00;;;19.50;77.30;;;;;;4990621;28;20437;-73
2023/07/11 06:00:24;;;;;;;0.00;0.00;;;19.50;77.30;;;;;;5002539;28;20042;-74
2023/07/11 06:02:50;;;;;;;0.00;0.00;;;19.50;77.10;;;;;;5008414;28;20073;-74
2023/07/11 06:05:16;;;;;;;0.00;0.00;;;19.60;76.90;;;;;;5009383;28;20741;-73
2023/07/11 06:07:43;;;;;;;0.00;0.00;;;19.70;76.60;;;;;;5008262;28;20050;-72
2023/07/11 06:10:08;;;;;;;0.10;0.10;;;19.80;76.80;;;;;;5008348;28;20046;-68
2023/07/11 06:12:34;;;;;;;0.00;0.00;;;19.90;76.70;;;;;;5008182;28;20057;-68
2023/07/11 06:15:00;;;;;;;0.00;0.00;;;20.00;75.90;;;;;;5006423;28;20048;-68
2023/07/11 06:17:27;;;;;;;0.00;0.00;;;20.10;75.50;;;;;;5009679;28;20141;-68
2023/07/11 06:19:52;;;;;;;0.00;0.00;;;20.20;75.50;;;;;;5009199;28;20084;-69
2023/07/11 06:22:18;;;;;;;0.00;0.00;;;20.30;75.40;;;;;;5008095;28;20081;-68
2023/07/11 06:24:44;;;;;;;0.00;0.00;;;20.40;75.50;;;;;;5006780;28;20665;-69
2023/07/11 06:27:10;;;;;;;0.00;0.00;;;20.40;75.00;;;;;;5003263;28;21027;-69
2023/07/11 06:29:35;;;;;;;0.00;0.00;;;20.40;75.30;;;;;;5015806;28;20741;-69
2023/07/11 06:32:01;;;;;;;0.00;0.00;;;20.40;75.10;;;;;;5016133;28;20433;-68
2023/07/11 06:34:27;;;;;;;0.00;0.00;;;20.40;74.80;;;;;;5016038;28;20049;-69
2023/07/11 06:36:52;;;;;;;0.00;0.00;;;20.50;74.80;;;;;;5015216;28;20038;-68
2023/07/11 06:39:18;;;;;;;0.00;0.00;;;20.50;74.70;;;;;;5017673;28;20520;-69
2023/07/11 06:41:44;;;;;;;0.00;0.00;;;20.50;74.50;;;;;;5017250;28;20045;-69
2023/07/11 06:44:09;;;;;;;0.00;0.00;;;20.60;74.50;;;;;;5015505;28;20041;-66
2023/07/11 06:46:35;;;;;;;0.00;0.00;;;20.70;74.80;;;;;;5012971;28;20523;-68
2023/07/11 06:49:02;;;;;;;0.00;0.00;;;20.70;74.80;;;;;;5013878;28;20053;-68
2023/07/11 06:51:28;;;;;;;0.00;0.00;;;20.80;74.50;;;;;;5016188;28;20080;-68
2023/07/11 06:53:54;;;;;;;0.10;0.10;;;20.90;75.10;;;;;;5014875;28;20056;-68
2023/07/11 06:56:21;;;;;;;0.00;0.00;;;21.00;75.30;;;;;;5016701;28;20494;-68
2023/07/11 06:58:47;;;;;;;0.00;0.00;;;21.00;75.10;;;;;;5016228;28;20050;-68
2023/07/11 07:01:14;;;;;;;0.00;0.00;;;21.10;74.80;;;;;;5017167;28;20552;-68
2023/07/11 07:03:40;;;;;;;0.00;0.00;;;21.20;75.40;;;;;;5013618;28;20049;-68
2023/07/11 07:06:11;;;;;;;0.00;0.00;;;21.20;75.80;;;;;;5011192;28;20042;-68
2023/07/11 07:08:36;;;;;;;0.00;0.00;;;21.30;75.70;;;;;;5015094;28;20064;-68
2023/07/11 07:11:02;;;;;;;0.00;0.00;;;21.40;75.20;;;;;;5015011;28;20054;-68
2023/07/11 07:13:28;;;;;;;0.00;0.00;;;21.40;74.60;;;;;;5014884;28;20083;-68
2023/07/11 07:15:56;;;;;;;0.00;0.00;;;21.50;74.80;;;;;;5013892;28;20038;-68
2023/07/11 07:18:23;;;;;;;0.00;0.00;;;21.50;74.50;;;;;;5014089;28;20060;-69
2023/07/11 07:20:51;;;;;;;0.00;0.00;;;21.50;74.30;;;;;;5013807;28;20430;-68
2023/07/11 07:23:16;;;;;;;0.00;0.00;;;21.60;74.30;;;;;;5015098;28;20312;-68
2023/07/11 07:25:50;;;;;;;0.00;0.00;;;21.60;74.00;;;;;;5016492;28;20042;-68
2023/07/11 07:28:15;;;;;;;0.00;0.00;;;21.60;73.70;;;;;;4999947;28;20124;-68
2023/07/11 07:30:49;;;;;;;0.13;0.13;;;21.60;73.70;;;;;;5017867;28;20640;-68
2023/07/11 07:33:15;;;;;;;0.00;0.00;;;21.70;73.60;;;;;;5019036;28;20064;-68
2023/07/11 07:35:41;;;;;;;0.00;0.00;;;21.70;73.70;;;;;;5019665;28;20041;-68
2023/07/11 07:38:07;;;;;;;0.00;0.00;;;21.70;73.50;;;;;;5018293;28;20053;-68
2023/07/11 07:40:33;;;;;;;0.00;0.00;;;21.80;73.20;;;;;;5016796;28;20721;-68
2023/07/11 07:42:58;;;;;;;0.00;0.00;;;21.80;73.10;;;;;;5009902;28;20045;-68
2023/07/11 07:45:24;;;;;;;0.00;0.00;;;21.90;73.30;;;;;;5016217;28;20163;-68
2023/07/11 07:47:50;;;;;;;0.00;0.00;;;22.00;73.00;;;;;;5011676;28;20076;-68
2023/07/11 07:50:16;;;;;;;0.00;0.00;;;22.00;72.70;;;;;;5017302;28;20076;-68
2023/07/11 07:52:41;;;;;;;0.00;0.00;;;22.10;72.80;;;;;;5018488;28;20577;-68
2023/07/11 07:55:07;;;;;;;0.15;0.15;;;22.20;72.70;;;;;;5018124;28;20364;-68
2023/07/11 07:57:33;;;;;;;0.00;0.00;;;22.30;72.30;;;;;;5001014;28;20140;-68
2023/07/11 07:59:59;;;;;;;0.00;0.00;;;22.50;72.00;;;;;;4999876;28;20125;-69
2023/07/11 08:02:24;;;;;;;0.10;0.10;;;22.60;71.80;;;;;;5019281;28;20486;-69
2023/07/11 08:04:54;;;;;;;0.00;0.00;;;22.60;70.70;;;;;;5017469;28;20044;-74
2023/07/11 08:07:20;;;;;;;0.10;0.10;;;22.70;70.40;;;;;;5018298;28;20046;-69
2023/07/11 08:09:47;;;;;;;0.00;0.00;;;22.80;70.60;;;;;;5019209;28;20056;-69
2023/07/11 08:12:12;;;;;;;0.00;0.00;;;22.80;70.60;;;;;;5015139;28;20054;-68
2023/07/11 08:14:39;;;;;;;0.00;0.00;;;22.80;70.00;;;;;;5009371;28;20057;-68
2023/07/11 08:17:06;;;;;;;0.00;0.00;;;22.80;70.00;;;;;;5009645;28;20536;-68
2023/07/11 08:19:32;;;;;;;0.00;0.00;;;22.80;70.00;;;;;;5007074;28;20080;-68
2023/07/11 08:21:58;;;;;;;0.00;0.00;;;22.90;69.60;;;;;;5007603;28;20085;-69
2023/07/11 08:24:23;;;;;;;0.10;0.10;;;23.00;69.60;;;;;;5010759;28;20042;-68
2023/07/11 08:26:50;;;;;;;0.00;0.00;;;23.00;69.40;;;;;;5009770;28;20049;-68
2023/07/11 08:29:16;;;;;;;0.00;0.00;;;23.10;69.50;;;;;;5010660;28;20046;-69
2023/07/11 08:31:42;;;;;;;0.00;0.00;;;23.10;69.00;;;;;;4991626;28;20069;-68
2023/07/11 08:34:08;;;;;;;0.00;0.00;;;23.20;69.10;;;;;;5010098;28;20105;-68
2023/07/11 08:36:33;;;;;;;0.00;0.00;;;23.30;69.10;;;;;;5007890;28;20941;-69
2023/07/11 08:38:59;;;;;;;0.00;0.00;;;23.30;68.30;;;;;;5007759;28;20058;-69
2023/07/11 08:41:25;;;;;;;0.00;0.00;;;23.30;67.90;;;;;;5010352;28;20119;-68
2023/07/11 08:43:54;;;;;;;0.00;0.00;;;23.40;68.10;;;;;;5006323;28;20168;-69
2023/07/11 08:46:21;;;;;;;0.10;0.10;;;23.40;68.50;;;;;;4989556;28;20482;-69
2023/07/11 08:48:58;;;;;;;0.00;0.00;;;23.50;66.30;;;;;;5007000;28;20062;-68
2023/07/11 08:51:40;;;;;;;0.00;0.00;;;23.50;67.00;;;;;;5000650;28;20049;-71
2023/07/11 08:54:17;;;;;;;0.08;0.08;;;23.70;66.50;;;;;;5011559;28;20056;-70
2023/07/11 08:56:46;;;;;;;0.00;0.00;;;23.70;65.10;;;;;;5008876;28;20034;-69
2023/07/11 08:59:19;;;;;;;0.47;0.47;;;23.90;65.50;;;;;;5005941;28;20116;-69
2023/07/11 09:02:03;;;;;;;0.08;0.08;;;24.00;65.80;;;;;;5009521;28;20052;-68
2023/07/11 09:04:30;;;;;;;0.35;0.35;;;24.00;63.80;;;;;;5008951;28;20146;-70
2023/07/11 09:07:04;;;;;;;0.00;0.00;;;24.00;62.50;;;;;;5009317;28;20084;-71
2023/07/11 09:09:32;;;;;;;0.10;0.10;;;24.00;63.60;;;;;;5007415;28;20060;-69
2023/07/11 09:12:24;;;;;;;0.00;0.00;;;24.00;63.50;;;;;;4992624;28;20483;-69
2023/07/11 09:15:02;;;;;;;0.00;0.00;;;24.10;62.80;;;;;;5010296;28;20081;-69
2023/07/11 09:17:57;;;;;;;0.22;0.20;;;24.10;62.90;;;;;;5010349;28;20123;-69
2023/07/11 09:20:48;;;;;;;0.22;0.22;;;24.20;62.20;;;;;;5010592;28;20131;-69
2023/07/11 09:23:53;;;;;;;0.00;0.00;;;24.40;62.20;;;;;;5010529;28;20054;-69
2023/07/11 09:26:27;;;;;;;0.00;0.00;;;24.40;60.80;;;;;;4960907;28;20127;-69
2023/07/11 09:29:05;;;;;;;0.00;0.00;;;24.40;61.30;;;;;;5010290;28;20129;-69
2023/07/11 09:31:41;;;;;;;0.00;0.00;;;24.50;60.20;;;;;;5010578;28;20042;-69
2023/07/11 09:34:22;;;;;;;0.10;0.10;;;24.50;60.10;;;;;;5010421;28;20046;-69
2023/07/11 09:36:49;;;;;;;0.00;0.00;;;24.50;60.90;;;;;;4990765;28;20055;-69
2023/07/11 09:39:35;;;;;;;2.00;0.90;;;24.50;60.50;;;;;;4990806;28;20053;-69
2023/07/11 09:42:08;;;;;;;0.00;0.00;;;24.50;61.40;;;;;;4990853;28;20461;-69
2023/07/11 09:44:33;;;;;;;0.00;0.00;;;24.50;61.80;;;;;;5002711;28;20078;-69
2023/07/11 09:47:17;;;;;;;0.00;0.00;;;24.40;61.90;;;;;;5008831;28;20109;-69
2023/07/11 09:49:45;;;;;;;0.00;0.00;;;24.50;62.50;;;;;;5008550;28;20053;-68
2023/07/11 09:52:21;;;;;;;0.10;0.10;;;24.40;62.20;;;;;;5009415;28;20054;-68
2023/07/11 09:54:47;;;;;;;4.47;1.10;;;24.40;63.20;;;;;;5008422;28;20077;-69
2023/07/11 09:57:12;;;;;;;0.00;0.00;;;24.50;62.80;;;;;;4990708;28;20077;-69
2023/07/11 09:59:43;;;;;;;0.22;0.10;;;24.50;61.70;;;;;;5009610;28;20083;-69
2023/07/11 10:02:15;;;;;;;0.17;0.17;;;24.50;62.80;;;;;;5017308;28;20042;-69
2023/07/11 10:04:41;;;;;;;0.00;0.00;;;24.50;62.60;;;;;;5016638;28;20061;-69
2023/07/11 10:07:13;;;;;;;0.20;0.20;;;24.50;63.20;;;;;;5017177;28;20042;-70
2023/07/11 10:09:48;;;;;;;0.00;0.00;;;24.60;62.70;;;;;;5010308;28;20081;-70
2023/07/11 10:12:22;;;;;;;0.00;0.00;;;24.70;62.40;;;;;;5009927;28;20149;-69
2023/07/11 10:15:00;;;;;;;0.00;0.00;;;24.70;61.90;;;;;;5008677;28;20041;-69
2023/07/11 10:17:32;;;;;;;0.00;0.00;;;24.70;62.80;;;;;;5007803;28;20049;-70
2023/07/11 10:20:00;;;;;;;0.00;0.00;;;24.70;62.90;;;;;;5009476;28;20054;-69
2023/07/11 10:22:29;;;;;;;0.00;0.00;;;24.70;61.40;;;;;;4990940;28;20038;-70
2023/07/11 10:25:11;;;;;;;0.22;0.22;;;24.80;62.50;;;;;;5009366;28;20038;-70
2023/07/11 10:27:37;;;;;;;0.00;0.00;;;24.70;61.60;;;;;;5008434;28;20038;-70
2023/07/11 10:30:05;;;;;;;2.00;1.25;;;24.70;61.90;;;;;;5009111;28;20038;-70
2023/07/11 10:32:56;;;;;;;0.00;0.00;;;24.70;61.60;;;;;;5008795;28;20046;-70
2023/07/11 10:35:23;;;;;;;0.00;0.00;;;24.70;62.10;;;;;;5008771;28;20085;-69
2023/07/11 10:38:02;;;;;;;0.00;0.00;;;24.70;61.90;;;;;;5007157;28;20056;-70
2023/07/11 10:40:31;;;;;;;0.00;0.00;;;24.80;61.90;;;;;;5007545;28;20092;-70
2023/07/11 10:43:35;;;;;;;0.00;0.00;;;24.90;62.80;;;;;;5008750;28;20136;-70
2023/07/11 10:46:05;;;;;;;0.00;0.00;;;24.90;63.10;;;;;;4975229;28;20129;-69
2023/07/11 10:48:34;;;;;;;2.22;1.80;;;24.90;61.30;;;;;;5007861;28;20062;-70
2023/07/11 10:51:29;;;;;;;0.00;0.00;;;24.90;61.20;;;;;;5008551;28;20065;-70
2023/07/11 10:54:06;;;;;;;0.00;0.00;;;24.90;60.90;;;;;;4982313;28;20392;-70
2023/07/11 10:56:35;;;;;;;0.00;0.00;;;25.00;61.60;;;;;;5004653;28;20082;-70
2023/07/11 10:59:02;;;;;;;0.00;0.00;;;25.00;60.40;;;;;;5007504;28;20037;-70
2023/07/11 11:01:27;;;;;;;0.00;0.00;;;25.10;61.50;;;;;;5007957;28;20038;-69
2023/07/11 11:04:03;;;;;;;0.00;0.00;;;25.20;61.20;;;;;;4974190;28;20050;-70
2023/07/11 11:06:54;;;;;;;0.00;0.00;;;25.30;61.40;;;;;;5011409;28;20130;-69
2023/07/11 11:09:42;;;;;;;0.25;0.25;;;25.50;59.40;;;;;;5005613;28;20050;-69
2023/07/11 11:12:41;;;;;;;0.00;0.00;;;25.50;60.40;;;;;;5000254;28;20467;-69
2023/07/11 11:15:13;;;;;;;0.00;0.00;;;25.50;59.70;;;;;;4990122;28;20438;-70
2023/07/11 11:18:04;;;;;;;0.00;0.00;;;25.40;59.00;;;;;;4985250;28;20841;-70
2023/07/11 11:20:44;;;;;;;;;;;25.40;60.30;;;;;;5010982;28;20057;-70
2023/07/11 11:23:23;;;;;;;0.00;0.00;;;25.50;60.40;;;;;;5009450;28;19991;-70
2023/07/11 11:26:15;;;;;;;0.00;0.00;;;25.50;59.30;;;;;;5001747;28;20054;-69
2023/07/11 11:29:06;;;;;;;0.00;0.00;;;25.40;59.50;;;;;;4981590;28;20090;-70
2023/07/11 11:31:34;;;;;;;;;;;25.50;59.40;;;;;;5002146;28;20054;-70
2023/07/11 11:34:18;;;;;;;0.00;0.00;;;25.60;58.50;;;;;;5004146;28;19929;-69
2023/07/11 11:37:02;;;;;;;0.00;0.00;;;25.50;57.40;;;;;;5001990;28;20053;-70
2023/07/11 11:39:47;;;;;;;0.00;0.00;;;25.40;58.80;;;;;;5011489;28;20057;-70
2023/07/11 11:42:26;;;;;;;0.00;0.00;;;25.30;59.20;;;;;;5003335;28;20063;-70
2023/07/11 11:44:58;;;;;;;0.08;0.08;;;25.30;59.90;;;;;;5011118;28;20053;-70
2023/07/11 11:47:25;;;;;;;0.20;0.20;;;25.20;58.50;;;;;;5011160;28;20050;-70
2023/07/11 11:49:52;;;;;;;5.82;0.47;;;25.10;58.50;;;;;;5011605;28;20045;-72
2023/07/11 11:52:21;;;;;;;0.00;0.00;;;25.00;59.20;;;;;;4993399;28;20464;-69
2023/07/11 11:54:48;;;;;;;0.00;0.00;;;24.90;58.70;;;;;;5012376;28;20084;-69
2023/07/11 11:57:22;;;;;;;0.13;0.10;;;25.00;58.40;;;;;;5012063;28;20517;-69
2023/07/11 11:59:48;;;;;;;0.00;0.00;;;24.90;59.20;;;;;;4995114;28;20077;-70
2023/07/11 12:02:21;;;;;;;0.00;0.00;;;24.80;60.30;;;;;;5011889;28;20069;-70
2023/07/11 12:05:04;;;;;;;0.00;0.00;;;24.80;59.90;;;;;;5012256;28;20053;-70
2023/07/11 12:07:36;;;;;;;8.30;1.00;;;24.90;61.10;;;;;;5007315;28;20038;-70
2023/07/11 12:10:08;;;;;;;0.00;0.00;;;25.00;61.60;;;;;;5007204;28;20112;-70
2023/07/11 12:12:34;;;;;;;0.10;0.10;;;25.00;61.10;;;;;;4991230;28;20064;-71
2023/07/11 12:15:18;;;;;;;0.00;0.00;;;25.00;61.10;;;;;;5003880;28;20402;-71
2023/07/11 12:17:45;;;;;;;0.00;0.00;;;25.00;61.60;;;;;;5007200;28;20120;-72
2023/07/11 12:20:14;;;;;;;0.00;0.00;;;25.00;60.80;;;;;;5004552;28;20044;-71
2023/07/11 12:22:39;;;;;;;0.10;0.10;;;25.00;59.70;;;;;;5003111;28;20054;-71
2023/07/11 12:25:05;;;;;;;0.00;0.00;;;25.00;58.80;;;;;;4987401;28;20100;-71
2023/07/11 12:27:51;;;;;;;0.00;0.00;;;25.00;58.10;;;;;;5001424;28;20097;-71
2023/07/11 12:30:28;;;;;;;0.00;0.00;;;25.00;58.00;;;;;;4976130;28;20081;-71
2023/07/11 12:33:29;;;;;;;0.08;0.08;;;25.10;58.70;;;;;;5001534;28;20180;-71
2023/07/11 12:36:19;;;;;;;0.13;0.10;;;25.10;58.70;;;;;;4987154;28;20414;-70
2023/07/11 12:39:02;;;;;;;0.00;0.00;;;25.20;58.40;;;;;;5002401;28;20161;-71
2023/07/11 12:41:30;;;;;;;0.00;0.00;;;25.20;59.60;;;;;;4985537;28;20121;-71
2023/07/11 12:43:56;;;;;;;0.00;0.00;;;25.30;61.30;;;;;;5003724;28;20100;-71
2023/07/11 12:46:34;;;;;;;1.05;0.98;;;25.30;61.20;;;;;;4983633;28;20144;-71
2023/07/11 12:49:03;;;;;;;0.00;0.00;;;25.40;61.40;;;;;;5003384;28;20045;-71
2023/07/11 12:51:36;;;;;;;0.00;0.00;;;25.40;62.00;;;;;;4999861;28;20392;-71
2023/07/11 12:54:14;;;;;;;0.17;0.17;;;25.40;62.70;;;;;;5005073;28;20104;-71
2023/07/11 12:56:45;;;;;;;0.10;0.10;;;25.50;62.00;;;;;;5001287;28;20099;-70
2023/07/11 12:59:39;;;;;;;0.00;0.00;;;25.50;63.60;;;;;;5000812;28;20041;-71
2023/07/11 13:02:06;;;;;;;0.00;0.00;;;25.60;63.10;;;;;;4997177;28;20053;-71